Time;durP1;ratioP1;P1;durP2;ratioP2;P2;SDS_P1;SDS_P2;PMS_P1;PMS_P2;Temp;Humidity;BMP_temperature;BMP_pressure;BME280_temperature;BME280_humidity;BME280_pressure;Samples;Min_cycle;Max_cycle;Signal;HPM_P1;HPM_P2
2022/01/17 00:00:21;;;;;;;39.53;13.18;;;;;;;12.77;50.50;102902.91;4974451;28;20023;-62
2022/01/17 00:02:48;;;;;;;40.38;13.50;;;;;;;12.76;51.27;102903.88;4974011;28;20380;-62
2022/01/17 00:05:14;;;;;;;41.80;12.57;;;;;;;12.77;50.97;102902.91;4956621;28;20384;-62
2022/01/17 00:07:40;;;;;;;34.20;12.07;;;;;;;12.76;50.82;102911.94;4973382;28;20022;-63
2022/01/17 00:10:06;;;;;;;33.20;13.18;;;;;;;12.72;51.02;102902.34;4974694;28;20034;-62
2022/01/17 00:12:35;;;;;;;39.10;12.75;;;;;;;12.72;50.59;102907.72;4975193;28;20472;-62
2022/01/17 00:15:00;;;;;;;35.33;13.60;;;;;;;12.73;51.60;102904.91;4957815;28;20027;-62
2022/01/17 00:17:34;;;;;;;33.45;11.98;;;;;;;12.73;50.43;102899.53;4974899;28;20023;-62
2022/01/17 00:20:09;;;;;;;34.75;11.90;;;;;;;12.73;50.46;102898.72;4975049;28;20034;-62
2022/01/17 00:22:35;;;;;;;38.97;11.95;;;;;;;12.74;51.37;102908.47;4974863;28;20038;-62
2022/01/17 00:25:00;;;;;;;41.67;13.55;;;;;;;12.73;50.83;102904.09;4979104;28;20027;-62
2022/01/17 00:27:26;;;;;;;36.13;12.95;;;;;;;12.72;50.62;102902.34;4987287;28;20069;-63
2022/01/17 00:29:51;;;;;;;39.75;13.52;;;;;;;12.71;51.54;102914.03;4987637;28;20420;-62
2022/01/17 00:32:16;;;;;;;44.80;14.20;;;;;;;12.65;50.66;102911.72;4986168;28;20105;-62
2022/01/17 00:34:42;;;;;;;48.20;14.85;;;;;;;12.74;51.36;102930.00;4988970;28;20039;-63
2022/01/17 00:37:07;;;;;;;35.60;12.50;;;;;;;12.75;50.89;102935.31;4988082;28;20489;-62
2022/01/17 00:39:32;;;;;;;37.88;14.50;;;;;;;12.72;51.52;102934.59;4986256;28;20030;-62
2022/01/17 00:41:58;;;;;;;36.47;12.10;;;;;;;12.80;50.67;102943.09;4988685;28;20105;-62
2022/01/17 00:44:23;;;;;;;32.17;12.00;;;;;;;12.81;51.64;102955.59;4987194;28;20038;-62
2022/01/17 00:46:51;;;;;;;37.05;12.75;;;;;;;12.85;50.85;102955.28;4987260;28;20062;-62
2022/01/17 00:49:16;;;;;;;36.60;11.88;;;;;;;12.89;51.08;102949.72;4967011;28;20030;-63
2022/01/17 00:51:42;;;;;;;31.75;12.98;;;;;;;12.89;50.81;102956.00;4988399;28;20469;-62
2022/01/17 00:54:08;;;;;;;39.28;12.10;;;;;;;12.90;51.69;102949.63;4969306;28;20083;-62
2022/01/17 00:56:33;;;;;;;35.92;12.85;;;;;;;12.90;50.53;102957.69;4988037;28;20026;-62
2022/01/17 00:58:58;;;;;;;30.90;12.80;;;;;;;12.90;51.06;102948.78;4975171;28;20038;-62
2022/01/17 01:01:24;;;;;;;32.00;12.30;;;;;;;12.92;50.37;102936.97;4992811;28;20113;-62
2022/01/17 01:03:49;;;;;;;33.63;12.52;;;;;;;12.92;51.50;102933.41;4980233;28;20038;-62
2022/01/17 01:06:15;;;;;;;41.50;13.95;;;;;;;12.76;50.65;102922.69;4997877;28;20149;-63
2022/01/17 01:08:40;;;;;;;29.95;14.23;;;;;;;12.84;51.26;102933.88;4980425;28;20030;-62
2022/01/17 01:11:06;;;;;;;31.15;12.68;;;;;;;12.92;51.66;102953.13;4997823;28;20396;-63
2022/01/17 01:13:31;;;;;;;40.83;14.02;;;;;;;12.91;50.53;102946.00;4997820;28;20030;-62
2022/01/17 01:29:14;;;;;;;39.05;14.68;;;;;;;12.93;50.89;102959.34;4997450;28;20061;-62
2022/01/17 01:31:51;;;;;;;37.78;13.30;;;;;;;12.93;51.74;102970.97;4997404;28;20026;-63
2022/01/17 01:34:18;;;;;;;36.42;13.80;;;;;;;12.94;51.93;102967.34;4996412;28;20034;-63
2022/01/17 01:36:47;;;;;;;39.83;14.25;;;;;;;12.97;51.91;102975.22;4996203;28;20125;-62
2022/01/17 01:39:12;;;;;;;36.70;13.95;;;;;;;12.97;51.51;102966.28;4997253;28;20053;-62
2022/01/17 01:41:42;;;;;;;32.40;13.65;;;;;;;12.94;51.59;102961.94;4997222;28;20030;-63
2022/01/17 01:44:13;;;;;;;38.13;13.35;;;;;;;12.98;50.55;102963.47;4980148;28;20026;-64
2022/01/17 01:46:39;;;;;;;35.90;12.65;;;;;;;12.99;51.96;102951.78;4996791;28;20476;-62
2022/01/17 01:49:04;;;;;;;35.60;13.50;;;;;;;13.00;50.89;102940.06;4997006;28;20026;-62
2022/01/17 01:51:29;;;;;;;38.63;13.20;;;;;;;13.00;50.69;102928.44;4996934;28;20034;-62
2022/01/17 01:53:55;;;;;;;34.60;12.43;;;;;;;12.99;50.58;102927.56;4995622;28;20030;-62
2022/01/17 01:56:20;;;;;;;26.55;12.55;;;;;;;12.98;51.77;102939.28;4979452;28;20033;-62
2022/01/17 01:58:46;;;;;;;25.42;10.82;;;;;;;12.95;50.67;102942.19;4997092;28;20031;-62
2022/01/17 02:01:11;;;;;;;38.65;12.93;;;;;;;12.95;50.89;102947.56;4996725;28;20034;-62
2022/01/17 02:03:36;;;;;;;33.78;12.40;;;;;;;12.97;51.81;102950.13;4997056;28;20018;-62
2022/01/17 02:06:02;;;;;;;34.35;11.95;;;;;;;12.95;51.92;102936.78;4996637;28;20053;-62
2022/01/17 02:08:30;;;;;;;26.83;11.35;;;;;;;12.97;50.69;102953.69;4996537;28;20061;-62
2022/01/17 02:10:55;;;;;;;32.83;11.82;;;;;;;12.93;52.11;102957.50;4996527;28;20022;-62
2022/01/17 02:13:20;;;;;;;29.67;10.82;;;;;;;13.01;51.29;102967.84;4996245;28;20026;-62
2022/01/17 02:15:47;;;;;;;32.70;12.05;;;;;;;13.01;51.60;102976.75;4996030;28;20471;-62
2022/01/17 02:18:19;;;;;;;28.65;11.75;;;;;;;13.02;51.82;102983.88;4978911;28;20113;-62
2022/01/17 02:20:58;;;;;;;32.17;12.50;;;;;;;13.01;50.99;102984.81;4995145;28;20030;-62
2022/01/17 02:23:24;;;;;;;30.83;12.13;;;;;;;13.02;50.71;102975.81;4996391;28;20112;-62
2022/01/17 02:25:50;;;;;;;35.08;11.52;;;;;;;13.04;50.70;102967.63;4996636;28;20058;-62
2022/01/17 02:28:15;;;;;;;34.33;11.70;;;;;;;13.05;51.66;102954.09;4996533;28;20465;-62
2022/01/17 02:30:40;;;;;;;31.50;12.27;;;;;;;13.04;51.66;102952.34;4996322;28;20038;-63
2022/01/17 02:33:06;;;;;;;31.33;11.82;;;;;;;13.01;51.29;102962.47;4994886;28;20045;-62
2022/01/17 02:35:32;;;;;;;36.50;12.50;;;;;;;13.02;51.57;102959.66;4978254;28;20061;-62
2022/01/17 02:37:57;;;;;;;35.70;12.85;;;;;;;13.02;51.78;102964.16;4978442;28;20053;-63
2022/01/17 02:40:23;;;;;;;35.03;13.70;;;;;;;12.97;51.40;102967.16;4996139;28;20022;-62
2022/01/17 02:43:01;;;;;;;36.55;12.55;;;;;;;13.01;51.38;102979.44;4978731;28;20483;-62
2022/01/17 02:46:24;;;;;;;33.55;12.88;;;;;;;13.04;50.92;102981.94;4996021;28;20105;-62
2022/01/17 02:48:21;;;;;;;36.97;12.90;;;;;;;13.02;51.83;102970.41;4995061;28;20484;-62
2022/01/17 02:50:47;;;;;;;29.75;12.00;;;;;;;13.03;51.39;102966.78;4978473;28;20023;-62
2022/01/17 02:53:13;;;;;;;36.40;12.73;;;;;;;13.03;51.56;102988.31;4995714;28;20118;-63
2022/01/17 02:55:46;;;;;;;37.45;13.88;;;;;;;13.00;50.92;102969.66;4962449;28;20460;-62
2022/01/17 02:58:11;;;;;;;43.67;13.93;;;;;;;13.05;51.24;102975.63;4996020;28;20033;-62
2022/01/17 03:00:37;;;;;;;32.13;12.38;;;;;;;13.04;51.66;102968.50;4996015;28;20026;-62
2022/01/17 03:03:02;;;;;;;32.42;12.20;;;;;;;13.03;51.79;102973.97;4995459;28;20105;-62
2022/01/17 03:05:28;;;;;;;40.65;14.80;;;;;;;13.03;50.93;102982.94;4995657;28;20488;-62
2022/01/17 03:07:53;;;;;;;33.60;13.10;;;;;;;13.03;50.93;102972.16;4995484;28;20435;-62
2022/01/17 03:10:40;;;;;;;31.55;13.18;;;;;;;13.06;52.09;102976.50;4995369;28;20456;-62
2022/01/17 03:13:07;;;;;;;36.92;13.68;;;;;;;13.07;52.04;102973.72;4994671;28;20141;-62
2022/01/17 03:15:33;;;;;;;41.47;13.07;;;;;;;13.09;51.17;102970.97;4995480;28;20369;-62
2022/01/17 03:17:58;;;;;;;43.38;14.73;;;;;;;13.09;51.61;102971.81;4995446;28;20033;-62
2022/01/17 03:20:24;;;;;;;32.25;14.02;;;;;;;13.09;51.42;102966.41;4995323;28;20026;-62
2022/01/17 03:22:49;;;;;;;33.90;13.82;;;;;;;13.11;51.06;102964.53;4995228;28;20038;-62
2022/01/17 03:25:15;;;;;;;37.67;13.00;;;;;;;13.13;50.80;102962.59;4994717;28;20030;-62
2022/01/17 03:27:40;;;;;;;33.92;12.88;;;;;;;13.11;51.13;102960.97;4994695;28;20034;-62
2022/01/17 03:30:06;;;;;;;41.28;15.50;;;;;;;13.14;51.24;102958.09;4995055;28;20465;-61
2022/01/17 03:32:31;;;;;;;31.88;14.05;;;;;;;13.13;50.97;102951.84;4977782;28;20105;-62
2022/01/17 03:34:57;;;;;;;35.03;13.77;;;;;;;13.13;51.45;102946.44;4995456;28;20031;-62
2022/01/17 03:37:23;;;;;;;32.85;13.13;;;;;;;13.13;52.10;102938.38;4994631;28;20057;-62
2022/01/17 03:39:49;;;;;;;33.88;13.50;;;;;;;13.17;51.42;102942.63;4993656;28;20034;-62
2022/01/17 03:42:14;;;;;;;41.22;14.40;;;;;;;13.16;52.13;102934.63;4961298;28;20396;-62
2022/01/17 03:44:39;;;;;;;34.03;13.35;;;;;;;13.16;50.88;102929.25;4995060;28;20036;-62
2022/01/17 03:47:05;;;;;;;38.33;13.30;;;;;;;13.16;50.67;102940.00;4995025;28;20029;-62
2022/01/17 03:49:30;;;;;;;31.75;12.85;;;;;;;13.13;51.87;102940.19;4995142;28;20062;-62
2022/01/17 03:51:56;;;;;;;37.42;13.20;;;;;;;13.11;50.94;102948.38;4994959;28;20498;-63
2022/01/17 03:54:21;;;;;;;35.05;14.10;;;;;;;13.09;51.59;102955.66;4994733;28;20036;-62
2022/01/17 03:56:46;;;;;;;38.15;14.13;;;;;;;13.08;51.51;102953.94;4994621;28;20026;-62
2022/01/17 03:59:12;;;;;;;34.63;13.38;;;;;;;13.11;51.39;102959.16;4994879;28;20142;-62
2022/01/17 04:01:37;;;;;;;36.78;13.95;;;;;;;13.12;51.73;102955.47;4994482;28;20042;-62
2022/01/17 04:04:03;;;;;;;42.85;14.00;;;;;;;13.11;50.79;102961.84;4994519;28;20427;-62
2022/01/17 04:06:28;;;;;;;42.28;13.40;;;;;;;13.11;51.24;102959.16;4994308;28;20030;-63
2022/01/17 04:08:54;;;;;;;36.15;13.88;;;;;;;13.09;51.40;102963.72;4994422;28;20022;-62
2022/01/17 04:11:19;;;;;;;39.67;14.02;;;;;;;13.08;51.98;102970.09;4993365;28;20034;-62
2022/01/17 04:13:45;;;;;;;38.60;14.82;;;;;;;13.07;51.40;102964.75;4994425;28;20022;-62
2022/01/17 04:16:12;;;;;;;43.20;16.02;;;;;;;13.04;51.90;102976.56;4994310;28;20029;-62
2022/01/17 04:18:37;;;;;;;30.15;14.30;;;;;;;13.06;51.34;102974.69;4993439;28;20038;-63
2022/01/17 04:21:03;;;;;;;39.30;14.43;;;;;;;13.08;52.04;102985.38;4994226;28;20425;-62
2022/01/17 04:23:29;;;;;;;44.30;14.65;;;;;;;13.08;51.03;102979.97;4994239;28;20027;-62
2022/01/17 04:25:55;;;;;;;35.72;15.10;;;;;;;13.11;51.83;102975.28;4994117;28;20109;-62
2022/01/17 04:28:20;;;;;;;39.63;13.85;;;;;;;13.13;50.97;102975.19;4994539;28;20048;-62
2022/01/17 04:30:46;;;;;;;36.42;14.43;;;;;;;13.08;50.93;102980.84;4993037;28;20069;-62
2022/01/17 04:33:12;;;;;;;35.42;13.55;;;;;;;13.13;50.64;102978.75;4992999;28;20053;-62
2022/01/17 04:35:38;;;;;;;39.25;14.25;;;;;;;13.15;50.65;102965.22;4977145;28;20023;-61
2022/01/17 04:38:09;;;;;;;40.00;13.93;;;;;;;13.15;50.97;102966.06;4978992;28;20068;-62
2022/01/17 04:40:37;;;;;;;37.55;14.95;;;;;;;13.13;50.39;102981.44;4980809;28;20041;-62
2022/01/17 04:43:20;;;;;;;45.00;14.25;;;;;;;13.12;51.87;102982.38;4964714;28;20460;-62
2022/01/17 04:45:46;;;;;;;37.07;14.87;;;;;;;13.12;50.61;102987.75;4981032;28;20033;-63
2022/01/17 04:48:12;;;;;;;33.33;13.45;;;;;;;13.13;51.17;102986.81;4998026;28;20730;-62
2022/01/17 04:50:37;;;;;;;38.40;12.93;;;;;;;13.09;51.75;102982.56;4996963;28;20023;-62
2022/01/17 04:53:03;;;;;;;33.97;13.00;;;;;;;13.05;51.33;102983.69;4996982;28;20077;-62
2022/01/17 04:55:29;;;;;;;35.30;12.43;;;;;;;13.09;51.76;102987.94;4996861;28;20023;-62
2022/01/17 04:57:58;;;;;;;44.38;14.25;;;;;;;13.08;50.79;102988.06;4980558;28;20093;-62
2022/01/17 05:00:26;;;;;;;34.08;12.98;;;;;;;13.07;51.73;102997.94;4997742;28;20109;-62
2022/01/17 05:02:52;;;;;;;41.03;15.15;;;;;;;13.07;52.13;102997.94;4964369;28;20026;-62
2022/01/17 05:05:18;;;;;;;39.03;13.73;;;;;;;13.03;50.99;102998.19;4980567;28;20113;-62
2022/01/17 05:07:44;;;;;;;35.55;14.68;;;;;;;13.04;51.09;103003.47;4964716;28;20069;-62
2022/01/17 05:10:12;;;;;;;36.10;13.68;;;;;;;13.04;51.85;102990.03;4980316;28;20034;-62
2022/01/17 05:12:38;;;;;;;37.90;14.82;;;;;;;12.98;51.84;102970.72;4997568;28;20054;-63
2022/01/17 05:15:06;;;;;;;44.42;14.65;;;;;;;13.04;51.94;102979.25;4979965;28;20437;-62
2022/01/17 05:19:58;;;;;;;39.55;14.43;;;;;;;13.07;51.02;102989.88;4996674;28;20457;-62
2022/01/17 05:22:26;;;;;;;39.53;15.27;;;;;;;13.08;52.30;102990.75;4997252;28;20507;-62
2022/01/17 05:24:51;;;;;;;39.65;14.50;;;;;;;13.10;50.86;102995.06;4997327;28;20076;-62
2022/01/17 05:27:17;;;;;;;36.00;13.82;;;;;;;13.11;51.56;102994.13;4980080;28;20026;-62
2022/01/17 05:29:42;;;;;;;38.95;14.27;;;;;;;13.09;52.04;102993.31;4997660;28;20101;-62
2022/01/17 05:32:08;;;;;;;36.60;13.70;;;;;;;13.11;51.74;103015.66;4997455;28;20030;-62
2022/01/17 05:34:34;;;;;;;40.53;13.02;;;;;;;13.08;51.19;103014.97;4996240;28;20037;-63
2022/01/17 05:37:03;;;;;;;32.83;14.52;;;;;;;13.11;51.06;103014.78;4996285;28;20400;-62
2022/01/17 05:39:29;;;;;;;40.95;14.15;;;;;;;13.09;51.46;103025.63;4997097;28;20476;-62
2022/01/17 05:41:54;;;;;;;42.88;14.55;;;;;;;13.10;51.79;103035.44;4996990;28;20029;-62
2022/01/17 05:44:19;;;;;;;42.35;15.20;;;;;;;13.02;52.15;103013.47;4997070;28;20503;-62
2022/01/17 05:46:45;;;;;;;41.88;15.13;;;;;;;13.10;52.22;103032.75;4995642;28;20022;-62
2022/01/17 05:49:10;;;;;;;40.97;14.98;;;;;;;13.09;52.18;103033.69;4994763;28;20105;-62
2022/01/17 05:51:35;;;;;;;33.40;13.98;;;;;;;13.11;51.13;103029.09;4996983;28;20029;-62
2022/01/17 05:54:01;;;;;;;42.75;14.52;;;;;;;13.09;51.35;103022.94;4997222;28;20417;-62
2022/01/17 05:56:26;;;;;;;33.35;13.10;;;;;;;13.10;51.36;103021.97;4996927;28;20033;-62
2022/01/17 05:58:51;;;;;;;37.97;14.48;;;;;;;13.12;51.69;103013.84;4996667;28;20361;-62
2022/01/17 06:01:17;;;;;;;42.20;14.15;;;;;;;13.15;51.96;103008.28;4996690;28;20026;-62
2022/01/17 06:03:42;;;;;;;36.35;14.48;;;;;;;13.15;50.68;103019.03;4996675;28;20031;-62
2022/01/17 06:06:07;;;;;;;34.85;13.52;;;;;;;13.17;51.18;103031.44;4996806;28;20030;-62
2022/01/17 06:08:33;;;;;;;43.58;15.32;;;;;;;13.18;51.22;103018.81;4995573;28;20109;-62
2022/01/17 06:10:59;;;;;;;42.38;13.93;;;;;;;13.20;51.27;103016.94;4979212;28;20539;-62
2022/01/17 06:13:25;;;;;;;43.08;15.50;;;;;;;13.21;50.77;103013.25;4979281;28;20018;-62
2022/01/17 06:15:50;;;;;;;41.00;15.70;;;;;;;13.23;51.35;103024.81;4996500;28;20033;-62
2022/01/17 06:18:15;;;;;;;41.72;14.60;;;;;;;13.20;51.79;103027.69;4996369;28;20396;-62
2022/01/17 06:20:41;;;;;;;41.45;13.95;;;;;;;13.20;50.80;103027.69;4979206;28;20026;-62
2022/01/17 06:23:06;;;;;;;42.47;15.88;;;;;;;13.18;50.89;103019.69;4996331;28;20369;-62
2022/01/17 06:25:32;;;;;;;49.00;15.75;;;;;;;13.17;51.53;103023.38;4972107;28;20030;-62
2022/01/17 06:27:58;;;;;;;37.15;14.75;;;;;;;13.15;51.53;103036.03;4959761;28;20030;-62
2022/01/17 06:30:24;;;;;;;39.25;14.60;;;;;;;13.16;50.89;103042.28;4977025;28;20399;-62
2022/01/17 06:32:49;;;;;;;39.88;14.95;;;;;;;13.14;50.77;103039.69;4943277;28;20034;-62
2022/01/17 06:35:15;;;;;;;39.55;14.05;;;;;;;13.14;50.95;103047.75;4943689;28;20023;-62
2022/01/17 06:37:40;;;;;;;50.45;15.40;;;;;;;13.15;51.21;103037.88;4943323;28;20050;-62
2022/01/17 06:40:07;;;;;;;46.40;14.18;;;;;;;13.14;51.42;103028.94;4943527;28;20393;-61
2022/01/17 06:42:35;;;;;;;43.30;14.18;;;;;;;13.14;50.44;103023.53;4976507;28;20476;-62
2022/01/17 06:45:04;;;;;;;44.58;15.68;;;;;;;13.11;52.15;103018.34;4943426;28;20055;-62
2022/01/17 06:47:30;;;;;;;41.83;14.07;;;;;;;13.12;50.78;103035.34;4976734;28;20081;-62
2022/01/17 06:49:55;;;;;;;45.55;13.75;;;;;;;13.10;51.69;103038.13;4976492;28;20030;-62
2022/01/17 06:52:23;;;;;;;40.22;14.18;;;;;;;13.07;51.12;103027.53;4959205;28;20089;-62
2022/01/17 06:54:48;;;;;;;45.67;14.90;;;;;;;13.08;50.85;103039.19;4976719;28;20101;-62
2022/01/17 06:57:13;;;;;;;37.92;15.07;;;;;;;13.05;52.09;103034.81;4959276;28;20464;-62
2022/01/17 06:59:39;;;;;;;41.35;14.88;;;;;;;13.06;51.21;103051.81;4959121;28;20031;-62
2022/01/17 07:02:04;;;;;;;36.88;14.27;;;;;;;13.07;51.62;103064.31;4943030;28;20054;-62
2022/01/17 07:04:30;;;;;;;35.05;13.18;;;;;;;13.05;51.50;103069.78;4976393;28;20027;-62
2022/01/17 07:06:55;;;;;;;47.97;14.05;;;;;;;12.97;50.98;103064.00;4976257;28;20026;-62
2022/01/17 07:09:21;;;;;;;34.90;14.05;;;;;;;13.01;51.80;103080.84;4943276;28;20027;-62
2022/01/17 07:11:47;;;;;;;33.75;13.02;;;;;;;12.95;51.54;103097.31;4958773;28;20033;-62
2022/01/17 07:14:13;;;;;;;36.38;12.75;;;;;;;12.96;51.27;103121.44;4976189;28;20023;-62
2022/01/17 07:16:39;;;;;;;43.08;14.10;;;;;;;12.98;52.10;103114.13;4975949;28;20030;-62
2022/01/17 07:19:05;;;;;;;37.78;13.63;;;;;;;12.99;50.97;103117.69;4975955;28;20027;-62
2022/01/17 07:21:32;;;;;;;34.67;14.80;;;;;;;12.98;51.84;103092.59;4958701;28;20035;-62
2022/01/17 07:23:58;;;;;;;39.92;13.52;;;;;;;12.97;51.76;103090.03;4976168;28;20035;-62
2022/01/17 07:26:23;;;;;;;36.60;12.30;;;;;;;12.94;51.13;103080.31;4958346;28;20090;-62
2022/01/17 07:28:49;;;;;;;32.03;12.13;;;;;;;12.95;50.87;103081.19;4975751;28;20022;-62
2022/01/17 07:31:15;;;;;;;36.17;14.07;;;;;;;12.95;51.16;103074.00;4976057;28;20023;-62
2022/01/17 07:33:41;;;;;;;30.02;11.65;;;;;;;12.96;51.97;103062.25;4958411;28;20502;-62
2022/01/17 07:36:07;;;;;;;33.88;12.30;;;;;;;12.96;51.38;103086.47;4975637;28;20065;-62
2022/01/17 07:38:34;;;;;;;35.22;14.25;;;;;;;12.96;50.91;103086.47;4958097;28;20039;-62
2022/01/17 07:40:59;;;;;;;36.40;13.32;;;;;;;12.97;51.13;103090.03;4942637;28;20566;-62
2022/01/17 07:43:25;;;;;;;30.30;13.40;;;;;;;12.95;51.10;103090.13;4942217;28;20134;-62
2022/01/17 07:46:07;;;;;;;29.20;12.48;;;;;;;12.96;51.90;103089.16;4975224;28;20073;-62
2022/01/17 07:48:56;;;;;;;33.72;13.20;;;;;;;13.00;51.13;103101.47;4975224;28;20058;-62
2022/01/17 07:51:23;;;;;;;27.45;11.10;;;;;;;13.01;52.17;103086.22;4974917;28;20058;-61
2022/01/17 07:53:49;;;;;;;31.98;12.98;;;;;;;13.07;51.27;103091.22;4975184;28;20105;-62
2022/01/17 07:56:14;;;;;;;31.88;12.43;;;;;;;13.09;51.07;103083.97;4957880;28;20069;-62
2022/01/17 07:58:41;;;;;;;29.75;11.85;;;;;;;13.09;51.46;103076.75;4975245;28;20045;-62
2022/01/17 08:01:06;;;;;;;29.52;12.85;;;;;;;13.17;51.66;103085.25;4975005;28;20027;-62
2022/01/17 08:03:33;;;;;;;34.72;13.45;;;;;;;13.19;51.08;103074.38;4974865;28;20089;-62
2022/01/17 08:05:58;;;;;;;40.38;13.20;;;;;;;13.22;52.12;103085.84;4957574;28;20151;-62
2022/01/17 08:08:24;;;;;;;32.65;12.88;;;;;;;13.19;50.94;103088.72;4974887;28;20486;-62
2022/01/17 08:10:49;;;;;;;36.85;13.77;;;;;;;13.27;52.08;103099.88;4975227;28;20125;-62
2022/01/17 08:13:15;;;;;;;31.88;11.88;;;;;;;13.32;51.22;103095.09;4974259;28;20089;-62
2022/01/17 08:15:40;;;;;;;32.80;12.38;;;;;;;13.33;51.63;103087.91;4974772;28;20074;-62
2022/01/17 08:18:05;;;;;;;42.22;12.07;;;;;;;13.36;51.53;103091.28;4974755;28;20034;-62
2022/01/17 08:20:31;;;;;;;35.00;12.57;;;;;;;13.38;50.84;103097.44;4957493;28;20142;-62
2022/01/17 08:22:57;;;;;;;32.88;13.57;;;;;;;13.39;52.00;103093.78;4974500;28;20030;-61
2022/01/17 08:25:23;;;;;;;33.72;12.20;;;;;;;13.43;51.19;103095.31;4974702;28;20509;-61
2022/01/17 08:27:48;;;;;;;38.08;15.25;;;;;;;13.33;51.01;103086.06;4974642;28;20069;-62
2022/01/17 08:30:14;;;;;;;35.92;14.18;;;;;;;13.49;50.75;103112.06;4974991;28;20077;-62
2022/01/17 08:32:40;;;;;;;35.67;13.90;;;;;;;13.51;51.96;103119.13;4957583;28;20026;-62
2022/01/17 08:35:06;;;;;;;38.50;15.00;;;;;;;13.51;51.48;103107.47;4975058;28;20031;-62
2022/01/17 08:37:31;;;;;;;41.55;14.88;;;;;;;13.56;51.49;103124.22;4974319;28;20055;-62
2022/01/17 08:39:59;;;;;;;37.13;14.85;;;;;;;13.61;50.87;103124.78;4957200;28;20033;-62
2022/01/17 08:42:25;;;;;;;30.25;12.85;;;;;;;13.55;51.64;103128.72;4974690;28;20055;-62
2022/01/17 08:44:51;;;;;;;36.92;14.50;;;;;;;13.61;51.25;103133.75;4957288;28;20034;-62
2022/01/17 08:47:17;;;;;;;35.03;13.85;;;;;;;13.67;50.75;103127.13;4974488;28;20030;-62
2022/01/17 08:49:44;;;;;;;38.38;13.57;;;;;;;13.69;52.16;103127.88;4974661;28;20038;-62
2022/01/17 08:52:09;;;;;;;36.72;12.95;;;;;;;13.70;52.17;103119.72;4974484;28;20045;-62
2022/01/17 08:54:35;;;;;;;37.35;12.52;;;;;;;13.78;51.82;103128.22;4974562;28;20109;-61
2022/01/17 08:57:00;;;;;;;36.72;15.20;;;;;;;13.87;50.64;103118.69;4974216;28;20065;-62
2022/01/17 08:59:28;;;;;;;32.60;13.25;;;;;;;13.92;50.40;103124.66;4974590;28;20030;-61
2022/01/17 09:01:54;;;;;;;32.08;14.88;;;;;;;13.97;51.13;103125.25;4974474;28;20030;-62
2022/01/17 09:04:19;;;;;;;28.45;12.88;;;;;;;14.03;51.84;103127.56;4974338;28;20026;-62
2022/01/17 09:06:45;;;;;;;34.35;14.60;;;;;;;14.06;51.67;103132.78;4957048;28;20098;-62
2022/01/17 09:09:10;;;;;;;31.00;13.70;;;;;;;14.00;50.99;103117.84;4974463;28;20101;-62
2022/01/17 09:11:35;;;;;;;31.13;12.30;;;;;;;14.01;52.03;103124.94;4974479;28;20094;-62
2022/01/17 09:14:01;;;;;;;38.40;14.48;;;;;;;14.06;51.10;103119.28;4957400;28;20031;-62
2022/01/17 09:16:27;;;;;;;28.50;13.25;;;;;;;14.09;50.32;103120.94;4974420;28;20069;-62
2022/01/17 09:18:52;;;;;;;36.58;13.13;;;;;;;14.25;50.97;103127.09;4974638;28;20093;-62
2022/01/17 09:21:17;;;;;;;35.63;12.57;;;;;;;14.29;51.76;103140.25;4974357;28;20137;-62
2022/01/17 09:23:43;;;;;;;29.90;12.77;;;;;;;14.32;51.06;103150.88;4975913;28;20031;-62
2022/01/17 09:26:08;;;;;;;31.25;13.32;;;;;;;14.37;51.34;103145.22;4978271;28;20126;-62
2022/01/17 09:28:34;;;;;;;30.92;12.65;;;;;;;14.48;51.65;103123.84;4977938;28;20086;-62
2022/01/17 09:31:00;;;;;;;28.55;12.00;;;;;;;14.58;50.68;103133.06;4978000;28;20102;-62
2022/01/17 09:33:26;;;;;;;29.63;12.02;;;;;;;14.71;50.32;103120.53;4977845;28;20370;-62
2022/01/17 09:35:51;;;;;;;27.30;12.77;;;;;;;14.97;50.19;103121.50;4977885;28;20143;-62
2022/01/17 09:38:18;;;;;;;33.30;13.27;;;;;;;15.13;49.79;103128.47;4977685;28;20046;-62
2022/01/17 09:40:43;;;;;;;26.35;12.25;;;;;;;15.15;49.42;103131.97;4944819;28;20027;-62
2022/01/17 09:43:09;;;;;;;28.13;11.65;;;;;;;15.12;50.07;103144.78;4960430;28;20052;-62
2022/01/17 09:45:34;;;;;;;26.98;12.23;;;;;;;14.93;51.12;103120.00;4960525;28;20018;-62
2022/01/17 09:48:01;;;;;;;30.63;12.63;;;;;;;15.04;50.75;103157.94;4977373;28;20110;-61
2022/01/17 09:50:45;;;;;;;28.35;11.77;;;;;;;15.03;51.53;103161.59;4977671;28;20474;-62
2022/01/17 09:53:15;;;;;;;30.10;12.15;;;;;;;15.00;51.21;103175.28;4977223;28;20038;-62
2022/01/17 09:55:41;;;;;;;28.23;12.02;;;;;;;14.97;50.69;103161.97;4960027;28;20038;-62
2022/01/17 09:58:08;;;;;;;32.17;13.75;;;;;;;14.98;49.96;103167.31;4960180;28;20030;-62
2022/01/17 10:00:39;;;;;;;24.90;11.15;;;;;;;14.94;50.79;103181.06;4944044;28;20438;-62
2022/01/17 10:03:07;;;;;;;25.80;10.57;;;;;;;14.97;50.33;103194.38;4977506;28;20050;-62
2022/01/17 10:05:34;;;;;;;25.42;11.30;;;;;;;14.92;51.24;103183.00;4977360;28;20033;-62
2022/01/17 10:08:08;;;;;;;24.58;10.52;;;;;;;14.92;49.55;103201.91;4977426;28;20029;-62
2022/01/17 10:10:36;;;;;;;20.92;10.55;;;;;;;14.90;51.38;103196.63;4960210;28;20577;-62
2022/01/17 10:13:23;;;;;;;25.25;10.40;;;;;;;14.85;49.81;103181.69;4959726;28;20175;-62
2022/01/17 10:16:19;;;;;;;27.48;10.68;;;;;;;14.85;50.38;103200.59;4977044;28;20392;-62
2022/01/17 10:18:54;;;;;;;24.05;10.73;;;;;;;14.83;51.33;103183.59;4942609;28;20133;-62
2022/01/17 10:21:43;;;;;;;24.10;10.55;;;;;;;14.79;50.45;103171.28;4977040;28;20035;-62
2022/01/17 10:34:55;;;;;;;20.58;8.73;;;;;;;14.71;51.03;103179.00;4962024;28;20145;-62
2022/01/17 10:37:23;;;;;;;22.75;8.55;;;;;;;14.73;50.07;103177.06;4976533;28;20038;-62
2022/01/17 10:39:53;;;;;;;18.95;8.70;;;;;;;14.88;50.88;103184.19;4976882;28;20022;-62
2022/01/17 10:42:26;;;;;;;22.58;9.15;;;;;;;15.06;50.51;103196.47;4959341;28;20023;-62
2022/01/17 10:44:52;;;;;;;27.30;10.02;;;;;;;15.23;49.96;103193.53;4976606;28;20030;-62
2022/01/17 10:47:29;;;;;;;23.00;10.38;;;;;;;15.35;49.43;103191.88;4976549;28;20022;-62
2022/01/17 10:49:55;;;;;;;17.98;8.77;;;;;;;15.35;50.46;103203.53;4959329;28;20031;-63
2022/01/17 10:52:32;;;;;;;15.95;8.43;;;;;;;15.36;50.34;103194.44;4958930;28;20038;-62
2022/01/17 10:55:00;;;;;;;18.05;8.35;;;;;;;15.35;49.88;103210.78;4976533;28;20424;-62
2022/01/17 10:57:26;;;;;;;20.38;8.18;;;;;;;15.34;50.52;103212.59;4976187;28;20039;-62
2022/01/17 10:59:52;;;;;;;22.92;7.65;;;;;;;15.30;50.48;103205.66;4959207;28;20054;-62
2022/01/17 11:02:18;;;;;;;19.88;8.30;;;;;;;15.27;49.38;103213.97;4976037;28;20525;-62
2022/01/17 11:04:43;;;;;;;18.80;8.63;;;;;;;15.26;50.39;103214.94;4976074;28;20035;-62
2022/01/17 11:07:09;;;;;;;18.98;7.55;;;;;;;15.25;50.45;103210.50;4958638;28;20030;-62
2022/01/17 11:09:42;;;;;;;20.92;8.88;;;;;;;15.23;50.38;103220.53;4976232;28;20066;-62
2022/01/17 11:12:12;;;;;;;17.02;8.38;;;;;;;15.23;50.51;103220.53;4958691;28;20023;-62
2022/01/17 11:14:39;;;;;;;18.63;9.20;;;;;;;15.21;50.42;103222.50;4975925;28;20520;-62
2022/01/17 11:17:22;;;;;;;19.98;8.07;;;;;;;15.22;48.87;103218.81;4958615;28;20101;-62
2022/01/17 11:20:04;;;;;;;;;;;;;;;15.23;49.30;103220.53;4976140;28;20030;-62
2022/01/17 11:22:29;;;;;;;16.88;8.05;;;;;;;15.22;50.28;103217.94;4975966;28;20260;-62
2022/01/17 11:24:57;;;;;;;19.67;8.70;;;;;;;15.24;49.81;103211.50;4975852;28;20030;-62
2022/01/17 11:27:22;;;;;;;25.10;9.50;;;;;;;15.26;50.22;103208.69;4958471;28;20113;-62
2022/01/17 11:29:48;;;;;;;22.25;8.68;;;;;;;15.28;49.90;103202.19;4975711;28;20042;-62
2022/01/17 11:32:14;;;;;;;20.27;8.65;;;;;;;15.31;48.94;103202.00;4958306;28;20027;-62
2022/01/17 11:34:39;;;;;;;21.05;8.77;;;;;;;15.32;49.45;103189.38;4958599;28;20156;-62